sensor_id;sensor_type;location;lat;lon;timestamp;pressure;altitude;pressure_sealevel;temperature;humidity
51359;BME280;37448;51.588;7.248;2023-04-08T00:01:31;101548.66;;;3.67;97.26
51359;BME280;37448;51.588;7.248;2023-04-08T00:03:31;101546.00;;;3.63;96.74
51359;BME280;37448;51.588;7.248;2023-04-08T00:05:32;101551.19;;;3.64;97.13
51359;BME280;37448;51.588;7.248;2023-04-08T00:07:33;101553.72;;;3.61;96.67
51359;BME280;37448;51.588;7.248;2023-04-08T00:09:33;101555.41;;;3.61;96.91
51359;BME280;37448;51.588;7.248;2023-04-08T00:11:33;101560.56;;;3.59;96.62
51359;BME280;37448;51.588;7.248;2023-04-08T00:13:35;101562.22;;;3.57;96.79
51359;BME280;37448;51.588;7.248;2023-04-08T00:15:35;101559.59;;;3.55;96.97
51359;BME280;37448;51.588;7.248;2023-04-08T00:17:36;101559.53;;;3.52;96.74
51359;BME280;37448;51.588;7.248;2023-04-08T00:19:36;101566.34;;;3.49;96.46
51359;BME280;37448;51.588;7.248;2023-04-08T00:21:37;101557.66;;;3.45;96.23
51359;BME280;37448;51.588;7.248;2023-04-08T00:23:37;101565.16;;;3.34;95.95
51359;BME280;37448;51.588;7.248;2023-04-08T00:25:37;101563.25;;;3.25;94.88
51359;BME280;37448;51.588;7.248;2023-04-08T00:27:38;101566.69;;;3.26;95.60
51359;BME280;37448;51.588;7.248;2023-04-08T00:29:38;101570.94;;;3.24;96.01
51359;BME280;37448;51.588;7.248;2023-04-08T00:31:38;101562.31;;;3.23;95.73
51359;BME280;37448;51.588;7.248;2023-04-08T00:33:39;101566.53;;;3.20;96.27
51359;BME280;37448;51.588;7.248;2023-04-08T00:35:39;101568.22;;;3.18;95.65
51359;BME280;37448;51.588;7.248;2023-04-08T00:37:40;101565.50;;;3.13;95.41
51359;BME280;37448;51.588;7.248;2023-04-08T00:39:40;101565.38;;;3.07;95.62
51359;BME280;37448;51.588;7.248;2023-04-08T00:41:41;101564.47;;;3.05;96.04
51359;BME280;37448;51.588;7.248;2023-04-08T00:43:41;101568.78;;;3.04;95.67
51359;BME280;37448;51.588;7.248;2023-04-08T00:45:41;101572.19;;;3.05;96.07
51359;BME280;37448;51.588;7.248;2023-04-08T00:47:42;101568.66;;;3.01;95.74
51359;BME280;37448;51.588;7.248;2023-04-08T00:49:43;101572.13;;;3.01;95.85
51359;BME280;37448;51.588;7.248;2023-04-08T00:51:43;101566.09;;;3.01;95.81
51359;BME280;37448;51.588;7.248;2023-04-08T00:53:44;101570.44;;;3.02;96.26
51359;BME280;37448;51.588;7.248;2023-04-08T00:55:45;101577.94;;;2.93;95.03
51359;BME280;37448;51.588;7.248;2023-04-08T00:57:46;101574.22;;;2.81;95.40
51359;BME280;37448;51.588;7.248;2023-04-08T00:59:46;101577.84;;;2.90;96.22
51359;BME280;37448;51.588;7.248;2023-04-08T01:01:58;101581.19;;;2.85;96.02
51359;BME280;37448;51.588;7.248;2023-04-08T01:06:56;101587.19;;;2.84;96.60
51359;BME280;37448;51.588;7.248;2023-04-08T01:08:59;101587.53;;;2.65;95.21
51359;BME280;37448;51.588;7.248;2023-04-08T01:11:02;101580.72;;;2.67;95.74
51359;BME280;37448;51.588;7.248;2023-04-08T01:13:07;101587.63;;;2.68;95.36
51359;BME280;37448;51.588;7.248;2023-04-08T01:15:10;101583.72;;;2.50;95.57
51359;BME280;37448;51.588;7.248;2023-04-08T01:17:11;101583.16;;;2.61;96.46
51359;BME280;37448;51.588;7.248;2023-04-08T01:19:23;101588.38;;;2.64;96.33
51359;BME280;37448;51.588;7.248;2023-04-08T01:21:26;101591.03;;;2.67;96.43
51359;BME280;37448;51.588;7.248;2023-04-08T01:23:38;101582.47;;;2.68;96.75
51359;BME280;37448;51.588;7.248;2023-04-08T01:25:49;101578.28;;;2.71;96.58
51359;BME280;37448;51.588;7.248;2023-04-08T01:27:51;101590.97;;;2.64;96.63
51359;BME280;37448;51.588;7.248;2023-04-08T01:29:57;101594.28;;;2.60;96.02
51359;BME280;37448;51.588;7.248;2023-04-08T01:31:59;101583.91;;;2.56;96.18
51359;BME280;37448;51.588;7.248;2023-04-08T01:34:02;101585.03;;;2.66;96.62
51359;BME280;37448;51.588;7.248;2023-04-08T01:36:05;101590.19;;;2.68;96.50
51359;BME280;37448;51.588;7.248;2023-04-08T01:38:06;101590.63;;;2.51;95.89
51359;BME280;37448;51.588;7.248;2023-04-08T01:40:08;101592.56;;;2.58;96.44
51359;BME280;37448;51.588;7.248;2023-04-08T01:42:11;101590.06;;;2.63;96.91
51359;BME280;37448;51.588;7.248;2023-04-08T01:44:13;101589.09;;;2.58;96.87
51359;BME280;37448;51.588;7.248;2023-04-08T01:46:15;101589.13;;;2.60;96.94
51359;BME280;37448;51.588;7.248;2023-04-08T01:48:16;101583.06;;;2.57;96.40
51359;BME280;37448;51.588;7.248;2023-04-08T01:50:17;101587.31;;;2.55;96.16
51359;BME280;37448;51.588;7.248;2023-04-08T01:52:21;101585.56;;;2.54;96.34
51359;BME280;37448;51.588;7.248;2023-04-08T01:54:22;101590.63;;;2.51;96.63
51359;BME280;37448;51.588;7.248;2023-04-08T01:56:26;101587.03;;;2.44;95.53
51359;BME280;37448;51.588;7.248;2023-04-08T01:58:31;101586.13;;;2.42;95.75
51359;BME280;37448;51.588;7.248;2023-04-08T02:00:38;101583.41;;;2.39;96.08
51359;BME280;37448;51.588;7.248;2023-04-08T02:02:41;101586.72;;;2.34;95.40
51359;BME280;37448;51.588;7.248;2023-04-08T02:04:42;101586.66;;;2.31;95.71
51359;BME280;37448;51.588;7.248;2023-04-08T02:06:42;101586.44;;;2.24;95.37
51359;BME280;37448;51.588;7.248;2023-04-08T02:08:43;101579.47;;;2.20;95.38
51359;BME280;37448;51.588;7.248;2023-04-08T02:10:43;101585.91;;;2.04;94.55
51359;BME280;37448;51.588;7.248;2023-04-08T02:12:44;101587.69;;;2.07;95.15
51359;BME280;37448;51.588;7.248;2023-04-08T02:14:46;101586.03;;;2.09;95.35
51359;BME280;37448;51.588;7.248;2023-04-08T02:16:53;101586.06;;;2.10;96.07
51359;BME280;37448;51.588;7.248;2023-04-08T02:21:42;101590.34;;;2.10;96.25
51359;BME280;37448;51.588;7.248;2023-04-08T02:23:47;101595.50;;;2.10;96.09
51359;BME280;37448;51.588;7.248;2023-04-08T02:25:52;101592.97;;;2.11;96.22
51359;BME280;37448;51.588;7.248;2023-04-08T02:27:55;101585.13;;;2.07;96.29
51359;BME280;37448;51.588;7.248;2023-04-08T02:29:56;101604.63;;;1.98;95.39
51359;BME280;37448;51.588;7.248;2023-04-08T02:31:58;101600.94;;;1.90;95.42
51359;BME280;37448;51.588;7.248;2023-04-08T02:34:00;101606.09;;;1.90;95.59
51359;BME280;37448;51.588;7.248;2023-04-08T02:36:04;101594.91;;;1.90;95.56
51359;BME280;37448;51.588;7.248;2023-04-08T02:38:05;101601.13;;;1.96;96.37
51359;BME280;37448;51.588;7.248;2023-04-08T02:40:24;101608.00;;;1.96;96.30
51359;BME280;37448;51.588;7.248;2023-04-08T02:42:25;101609.59;;;1.92;95.24
51359;BME280;37448;51.588;7.248;2023-04-08T02:44:26;101607.03;;;1.92;95.81
51359;BME280;37448;51.588;7.248;2023-04-08T02:46:27;101605.22;;;1.90;95.33
51359;BME280;37448;51.588;7.248;2023-04-08T02:48:27;101610.03;;;1.79;94.82
51359;BME280;37448;51.588;7.248;2023-04-08T02:50:28;101611.78;;;1.80;94.84
51359;BME280;37448;51.588;7.248;2023-04-08T02:52:28;101610.94;;;1.79;95.48
51359;BME280;37448;51.588;7.248;2023-04-08T02:54:29;101614.38;;;1.80;95.55
51359;BME280;37448;51.588;7.248;2023-04-08T02:56:29;101612.69;;;1.80;95.41
51359;BME280;37448;51.588;7.248;2023-04-08T02:58:30;101610.78;;;1.75;95.33
51359;BME280;37448;51.588;7.248;2023-04-08T03:00:30;101612.50;;;1.74;95.44
51359;BME280;37448;51.588;7.248;2023-04-08T03:02:31;101615.94;;;1.75;95.73
51359;BME280;37448;51.588;7.248;2023-04-08T03:04:31;101618.50;;;1.75;95.83
51359;BME280;37448;51.588;7.248;2023-04-08T03:06:31;101622.75;;;1.72;95.51
51359;BME280;37448;51.588;7.248;2023-04-08T03:08:32;101616.66;;;1.69;95.87
51359;BME280;37448;51.588;7.248;2023-04-08T03:10:32;101619.25;;;1.70;95.59
51359;BME280;37448;51.588;7.248;2023-04-08T03:12:33;101623.41;;;1.67;95.46
51359;BME280;37448;51.588;7.248;2023-04-08T03:14:33;101622.47;;;1.63;95.18
51359;BME280;37448;51.588;7.248;2023-04-08T03:16:34;101629.28;;;1.61;94.79
51359;BME280;37448;51.588;7.248;2023-04-08T03:18:34;101635.03;;;1.54;94.69
51359;BME280;37448;51.588;7.248;2023-04-08T03:20:35;101634.19;;;1.53;95.00
51359;BME280;37448;51.588;7.248;2023-04-08T03:22:35;101614.41;;;1.52;95.41
51359;BME280;37448;51.588;7.248;2023-04-08T03:24:36;101616.06;;;1.50;95.31
51359;BME280;37448;51.588;7.248;2023-04-08T03:26:37;101621.88;;;1.45;95.28
51359;BME280;37448;51.588;7.248;2023-04-08T03:28:37;101623.53;;;1.42;94.59
51359;BME280;37448;51.588;7.248;2023-04-08T03:30:38;101621.78;;;1.41;95.08
51359;BME280;37448;51.588;7.248;2023-04-08T03:32:38;101633.44;;;1.30;93.89
51359;BME280;37448;51.588;7.248;2023-04-08T03:34:39;101632.94;;;1.14;93.96
51359;BME280;37448;51.588;7.248;2023-04-08T03:36:39;101624.59;;;1.22;94.94
51359;BME280;37448;51.588;7.248;2023-04-08T03:38:39;101621.00;;;1.17;94.99
51359;BME280;37448;51.588;7.248;2023-04-08T03:40:40;101625.41;;;1.21;95.22
51359;BME280;37448;51.588;7.248;2023-04-08T03:42:40;101623.50;;;1.15;94.74
51359;BME280;37448;51.588;7.248;2023-04-08T03:44:40;101626.91;;;1.14;94.89
51359;BME280;37448;51.588;7.248;2023-04-08T03:46:41;101630.28;;;1.11;94.49
51359;BME280;37448;51.588;7.248;2023-04-08T03:48:41;101627.56;;;1.08;94.57
51359;BME280;37448;51.588;7.248;2023-04-08T03:50:41;101631.91;;;1.09;95.44
51359;BME280;37448;51.588;7.248;2023-04-08T03:52:42;101638.56;;;1.03;94.59
51359;BME280;37448;51.588;7.248;2023-04-08T03:54:42;101633.41;;;1.03;94.90
51359;BME280;37448;51.588;7.248;2023-04-08T03:56:43;101639.56;;;1.08;95.25
51359;BME280;37448;51.588;7.248;2023-04-08T03:58:43;101635.25;;;1.07;95.13
51359;BME280;37448;51.588;7.248;2023-04-08T04:00:43;101629.22;;;1.06;95.40
51359;BME280;37448;51.588;7.248;2023-04-08T04:02:44;101630.09;;;1.07;95.68
51359;BME280;37448;51.588;7.248;2023-04-08T04:04:44;101637.00;;;1.08;95.37
51359;BME280;37448;51.588;7.248;2023-04-08T04:06:45;101640.44;;;1.08;95.65
51359;BME280;37448;51.588;7.248;2023-04-08T04:08:45;101633.59;;;1.09;95.88
51359;BME280;37448;51.588;7.248;2023-04-08T04:10:45;101633.53;;;1.07;95.57
51359;BME280;37448;51.588;7.248;2023-04-08T04:12:46;101636.25;;;1.10;96.00
51359;BME280;37448;51.588;7.248;2023-04-08T04:14:46;101633.75;;;1.13;95.67
51359;BME280;37448;51.588;7.248;2023-04-08T04:16:47;101640.56;;;1.11;95.39
51359;BME280;37448;51.588;7.248;2023-04-08T04:18:47;101640.28;;;1.04;94.80
51359;BME280;37448;51.588;7.248;2023-04-08T04:20:47;101641.06;;;1.01;94.77
51359;BME280;37448;51.588;7.248;2023-04-08T04:22:48;101641.25;;;1.07;95.41
51359;BME280;37448;51.588;7.248;2023-04-08T04:24:48;101643.69;;;1.03;94.97
51359;BME280;37448;51.588;7.248;2023-04-08T04:26:48;101656.28;;;0.95;94.41
51359;BME280;37448;51.588;7.248;2023-04-08T04:28:49;101647.84;;;0.99;94.95
51359;BME280;37448;51.588;7.248;2023-04-08T04:30:49;101648.03;;;1.05;95.35
51359;BME280;37448;51.588;7.248;2023-04-08T04:32:50;101648.84;;;1.03;95.13
51359;BME280;37448;51.588;7.248;2023-04-08T04:34:50;101657.22;;;0.97;94.64
51359;BME280;37448;51.588;7.248;2023-04-08T04:36:51;101664.22;;;1.01;94.78
51359;BME280;37448;51.588;7.248;2023-04-08T04:38:51;101662.53;;;1.02;95.17
51359;BME280;37448;51.588;7.248;2023-04-08T04:40:52;101665.22;;;1.06;95.21
51359;BME280;37448;51.588;7.248;2023-04-08T04:42:52;101665.38;;;1.09;95.83
51359;BME280;37448;51.588;7.248;2023-04-08T04:44:52;101662.06;;;1.13;95.74
51359;BME280;37448;51.588;7.248;2023-04-08T04:46:53;101673.22;;;1.14;95.65
51359;BME280;37448;51.588;7.248;2023-04-08T04:48:53;101670.38;;;1.06;95.05
51359;BME280;37448;51.588;7.248;2023-04-08T04:50:55;101672.41;;;1.15;95.46
51359;BME280;37448;51.588;7.248;2023-04-08T04:52:56;101679.91;;;1.09;95.10
51359;BME280;37448;51.588;7.248;2023-04-08T04:54:57;101676.69;;;1.14;95.24
51359;BME280;37448;51.588;7.248;2023-04-08T04:56:57;101675.97;;;1.19;96.08
51359;BME280;37448;51.588;7.248;2023-04-08T04:58:57;101672.34;;;1.13;95.05
51359;BME280;37448;51.588;7.248;2023-04-08T05:00:58;101673.38;;;1.19;95.42
51359;BME280;37448;51.588;7.248;2023-04-08T05:02:58;101672.47;;;1.17;94.81
51359;BME280;37448;51.588;7.248;2023-04-08T05:04:59;101674.31;;;1.21;95.29
51359;BME280;37448;51.588;7.248;2023-04-08T05:06:59;101668.50;;;1.26;95.79
51359;BME280;37448;51.588;7.248;2023-04-08T05:09:00;101674.47;;;1.25;95.05
51359;BME280;37448;51.588;7.248;2023-04-08T05:11:00;101668.78;;;1.36;96.05
51359;BME280;37448;51.588;7.248;2023-04-08T05:13:01;101678.44;;;1.41;96.06
51359;BME280;37448;51.588;7.248;2023-04-08T05:15:01;101675.13;;;1.46;96.27
51359;BME280;37448;51.588;7.248;2023-04-08T05:17:02;101676.97;;;1.50;95.86
51359;BME280;37448;51.588;7.248;2023-04-08T05:19:02;101682.22;;;1.53;95.95
51359;BME280;37448;51.588;7.248;2023-04-08T05:21:03;101680.56;;;1.55;95.53
51359;BME280;37448;51.588;7.248;2023-04-08T05:23:03;101677.38;;;1.62;96.10
51359;BME280;37448;51.588;7.248;2023-04-08T05:25:04;101680.97;;;1.67;96.73
51359;BME280;37448;51.588;7.248;2023-04-08T05:27:05;101683.69;;;1.72;96.08
51359;BME280;37448;51.588;7.248;2023-04-08T05:29:05;101686.50;;;1.80;96.40
51359;BME280;37448;51.588;7.248;2023-04-08T05:31:06;101688.38;;;1.84;97.59
51359;BME280;37448;51.588;7.248;2023-04-08T05:33:06;101688.38;;;1.84;96.61
51359;BME280;37448;51.588;7.248;2023-04-08T05:35:07;101695.84;;;1.76;95.12
51359;BME280;37448;51.588;7.248;2023-04-08T05:37:08;101706.44;;;1.85;96.44
51359;BME280;37448;51.588;7.248;2023-04-08T05:39:09;101698.84;;;1.90;95.98
51359;BME280;37448;51.588;7.248;2023-04-08T05:41:09;101702.94;;;1.83;94.98
51359;BME280;37448;51.588;7.248;2023-04-08T05:43:09;101704.19;;;1.96;96.06
51359;BME280;37448;51.588;7.248;2023-04-08T05:45:10;101703.44;;;1.99;96.43
51359;BME280;37448;51.588;7.248;2023-04-08T05:47:10;101714.81;;;2.06;96.59
51359;BME280;37448;51.588;7.248;2023-04-08T05:49:11;101720.44;;;1.94;95.27
51359;BME280;37448;51.588;7.248;2023-04-08T05:51:14;101724.50;;;2.14;96.60
51359;BME280;37448;51.588;7.248;2023-04-08T05:53:15;101728.69;;;2.11;96.54
51359;BME280;37448;51.588;7.248;2023-04-08T05:55:16;101728.78;;;2.14;95.98
51359;BME280;37448;51.588;7.248;2023-04-08T05:57:16;101734.03;;;2.17;95.53
51359;BME280;37448;51.588;7.248;2023-04-08T05:59:16;101729.06;;;2.23;96.02
51359;BME280;37448;51.588;7.248;2023-04-08T06:01:17;101729.34;;;2.33;96.94
51359;BME280;37448;51.588;7.248;2023-04-08T06:03:17;101726.94;;;2.39;96.83
51359;BME280;37448;51.588;7.248;2023-04-08T06:05:18;101732.13;;;2.40;96.99
51359;BME280;37448;51.588;7.248;2023-04-08T06:07:18;101727.03;;;2.42;96.06
51359;BME280;37448;51.588;7.248;2023-04-08T06:09:18;101723.69;;;2.44;96.18
51359;BME280;37448;51.588;7.248;2023-04-08T06:11:19;101720.44;;;2.52;96.34
51359;BME280;37448;51.588;7.248;2023-04-08T06:13:19;101733.34;;;2.52;95.79
51359;BME280;37448;51.588;7.248;2023-04-08T06:15:21;101733.78;;;2.38;94.71
51359;BME280;37448;51.588;7.248;2023-04-08T06:17:21;101741.25;;;2.58;96.17
51359;BME280;37448;51.588;7.248;2023-04-08T06:19:21;101737.97;;;2.64;96.65
51359;BME280;37448;51.588;7.248;2023-04-08T06:21:22;101744.94;;;2.66;96.41
51359;BME280;37448;51.588;7.248;2023-04-08T06:23:22;101747.22;;;2.55;94.88
51359;BME280;37448;51.588;7.248;2023-04-08T06:25:23;101746.56;;;2.63;95.27
51359;BME280;37448;51.588;7.248;2023-04-08T06:27:23;101759.53;;;2.66;95.38
51359;BME280;37448;51.588;7.248;2023-04-08T06:29:24;101748.34;;;2.65;95.40
51359;BME280;37448;51.588;7.248;2023-04-08T06:31:24;101753.78;;;2.75;95.28
51359;BME280;37448;51.588;7.248;2023-04-08T06:33:25;101763.94;;;2.70;94.64
51359;BME280;37448;51.588;7.248;2023-04-08T06:35:25;101759.31;;;2.89;96.47
51359;BME280;37448;51.588;7.248;2023-04-08T06:37:26;101759.25;;;2.85;95.15
51359;BME280;37448;51.588;7.248;2023-04-08T06:39:26;101757.78;;;2.95;94.22
51359;BME280;37448;51.588;7.248;2023-04-08T06:41:27;101760.13;;;3.18;97.17
51359;BME280;37448;51.588;7.248;2023-04-08T06:43:35;101763.47;;;3.14;95.97
51359;BME280;37448;51.588;7.248;2023-04-08T06:45:36;101752.59;;;3.26;95.94
51359;BME280;37448;51.588;7.248;2023-04-08T06:47:37;101753.75;;;3.37;96.25
51359;BME280;37448;51.588;7.248;2023-04-08T06:49:37;101757.28;;;3.41;95.26
51359;BME280;37448;51.588;7.248;2023-04-08T06:51:37;101765.13;;;3.45;94.59
51359;BME280;37448;51.588;7.248;2023-04-08T06:53:38;101769.53;;;3.48;95.12
51359;BME280;37448;51.588;7.248;2023-04-08T06:55:38;101781.72;;;3.54;95.15
51359;BME280;37448;51.588;7.248;2023-04-08T06:57:38;101780.72;;;3.49;94.11
51359;BME280;37448;51.588;7.248;2023-04-08T06:59:39;101782.56;;;3.53;94.16
51359;BME280;37448;51.588;7.248;2023-04-08T07:01:39;101786.22;;;3.61;95.82
51359;BME280;37448;51.588;7.248;2023-04-08T07:03:41;101782.03;;;3.66;96.37
51359;BME280;37448;51.588;7.248;2023-04-08T07:05:41;101783.78;;;3.67;96.68
51359;BME280;37448;51.588;7.248;2023-04-08T07:07:41;101795.06;;;3.71;95.75
51359;BME280;37448;51.588;7.248;2023-04-08T07:09:42;101797.38;;;3.95;94.74
51359;BME280;37448;51.588;7.248;2023-04-08T07:11:45;101793.63;;;4.18;94.49
51359;BME280;37448;51.588;7.248;2023-04-08T07:13:45;101784.34;;;4.27;94.67
51359;BME280;37448;51.588;7.248;2023-04-08T07:15:45;101789.84;;;4.43;94.75
51359;BME280;37448;51.588;7.248;2023-04-08T07:17:46;101794.25;;;4.45;94.18
51359;BME280;37448;51.588;7.248;2023-04-08T07:19:46;101801.44;;;4.59;96.44
51359;BME280;37448;51.588;7.248;2023-04-08T07:21:47;101796.06;;;4.50;93.95
51359;BME280;37448;51.588;7.248;2023-04-08T07:23:47;101789.06;;;4.45;93.33
51359;BME280;37448;51.588;7.248;2023-04-08T07:25:48;101791.72;;;4.49;92.75
51359;BME280;37448;51.588;7.248;2023-04-08T07:27:48;101794.19;;;4.44;91.51
51359;BME280;37448;51.588;7.248;2023-04-08T07:29:52;101788.28;;;4.48;93.21
51359;BME280;37448;51.588;7.248;2023-04-08T07:31:53;101797.78;;;4.49;92.01
51359;BME280;37448;51.588;7.248;2023-04-08T07:33:53;101801.88;;;4.41;89.78
51359;BME280;37448;51.588;7.248;2023-04-08T07:35:54;101804.81;;;4.56;90.43
51359;BME280;37448;51.588;7.248;2023-04-08T07:37:55;101805.75;;;5.00;92.06
51359;BME280;37448;51.588;7.248;2023-04-08T07:39:56;101810.84;;;5.41;90.53
51359;BME280;37448;51.588;7.248;2023-04-08T07:41:57;101812.06;;;5.60;88.43
51359;BME280;37448;51.588;7.248;2023-04-08T07:43:57;101813.75;;;5.58;85.40
51359;BME280;37448;51.588;7.248;2023-04-08T07:46:00;101817.06;;;6.00;89.25
51359;BME280;37448;51.588;7.248;2023-04-08T07:48:04;101809.31;;;6.02;83.74
51359;BME280;37448;51.588;7.248;2023-04-08T07:50:05;101807.34;;;6.41;90.89
51359;BME280;37448;51.588;7.248;2023-04-08T07:52:05;101812.59;;;6.49;89.81
51359;BME280;37448;51.588;7.248;2023-04-08T07:54:06;101810.91;;;6.49;90.80
51359;BME280;37448;51.588;7.248;2023-04-08T07:56:11;101808.88;;;6.29;86.73
51359;BME280;37448;51.588;7.248;2023-04-08T07:58:11;101814.88;;;6.27;87.81
51359;BME280;37448;51.588;7.248;2023-04-08T08:00:12;101821.59;;;6.12;86.53
51359;BME280;37448;51.588;7.248;2023-04-08T08:02:19;101823.47;;;6.21;88.54
51359;BME280;37448;51.588;7.248;2023-04-08T08:04:20;101822.16;;;5.96;84.82
51359;BME280;37448;51.588;7.248;2023-04-08T08:06:20;101824.06;;;6.05;88.12
51359;BME280;37448;51.588;7.248;2023-04-08T08:08:21;101820.56;;;6.02;88.33
51359;BME280;37448;51.588;7.248;2023-04-08T08:10:21;101827.22;;;5.88;85.94
51359;BME280;37448;51.588;7.248;2023-04-08T08:12:22;101832.22;;;5.77;85.50
51359;BME280;37448;51.588;7.248;2023-04-08T08:14:22;101833.69;;;5.63;84.13
51359;BME280;37448;51.588;7.248;2023-04-08T08:16:27;101838.78;;;5.58;86.05
51359;BME280;37448;51.588;7.248;2023-04-08T08:18:28;101843.81;;;5.49;85.87
51359;BME280;37448;51.588;7.248;2023-04-08T08:20:28;101845.66;;;5.56;87.75
51359;BME280;37448;51.588;7.248;2023-04-08T08:22:28;101848.41;;;5.64;90.06
51359;BME280;37448;51.588;7.248;2023-04-08T08:24:29;101846.84;;;5.75;92.29
51359;BME280;37448;51.588;7.248;2023-04-08T08:26:29;101845.78;;;5.62;88.39
51359;BME280;37448;51.588;7.248;2023-04-08T08:28:29;101854.44;;;5.64;88.24
51359;BME280;37448;51.588;7.248;2023-04-08T08:30:30;101842.50;;;5.72;90.36
51359;BME280;37448;51.588;7.248;2023-04-08T08:32:30;101847.81;;;5.79;91.73
51359;BME280;37448;51.588;7.248;2023-04-08T08:34:31;101852.88;;;5.74;89.60
51359;BME280;37448;51.588;7.248;2023-04-08T08:36:31;101858.88;;;5.68;86.49
51359;BME280;37448;51.588;7.248;2023-04-08T08:38:32;101865.19;;;5.86;89.68
51359;BME280;37448;51.588;7.248;2023-04-08T08:40:32;101861.84;;;5.92;90.61
51359;BME280;37448;51.588;7.248;2023-04-08T08:42:33;101872.16;;;5.88;88.31
51359;BME280;37448;51.588;7.248;2023-04-08T08:44:33;101867.19;;;5.99;88.78
51359;BME280;37448;51.588;7.248;2023-04-08T08:46:33;101871.72;;;6.11;87.46
51359;BME280;37448;51.588;7.248;2023-04-08T08:48:35;101872.03;;;6.31;88.57
51359;BME280;37448;51.588;7.248;2023-04-08T08:50:37;101876.63;;;6.48;87.78
51359;BME280;37448;51.588;7.248;2023-04-08T08:52:38;101877.72;;;6.64;88.16
51359;BME280;37448;51.588;7.248;2023-04-08T08:54:38;101882.78;;;6.55;82.68
51359;BME280;37448;51.588;7.248;2023-04-08T08:56:38;101875.88;;;6.55;84.18
51359;BME280;37448;51.588;7.248;2023-04-08T08:58:39;101870.19;;;6.81;89.01
51359;BME280;37448;51.588;7.248;2023-04-08T09:00:41;101877.16;;;6.85;90.41
51359;BME280;37448;51.588;7.248;2023-04-08T09:02:44;101873.56;;;6.74;87.66
51359;BME280;37448;51.588;7.248;2023-04-08T09:04:55;101876.47;;;6.39;83.99
51359;BME280;37448;51.588;7.248;2023-04-08T09:07:10;101884.41;;;6.48;86.72
51359;BME280;37448;51.588;7.248;2023-04-08T09:09:13;101877.41;;;6.41;86.38
51359;BME280;37448;51.588;7.248;2023-04-08T09:11:15;101879.91;;;6.38;85.50
51359;BME280;37448;51.588;7.248;2023-04-08T09:13:16;101884.19;;;6.34;86.31
51359;BME280;37448;51.588;7.248;2023-04-08T09:15:16;101882.94;;;6.10;85.06
51359;BME280;37448;51.588;7.248;2023-04-08T09:17:36;101884.00;;;6.22;87.82
51359;BME280;37448;51.588;7.248;2023-04-08T09:19:37;101872.50;;;6.06;85.15
51359;BME280;37448;51.588;7.248;2023-04-08T09:21:38;101881.34;;;6.17;88.49
51359;BME280;37448;51.588;7.248;2023-04-08T09:25:41;101875.94;;;6.05;86.85
51359;BME280;37448;51.588;7.248;2023-04-08T09:27:42;101876.84;;;6.07;89.13
51359;BME280;37448;51.588;7.248;2023-04-08T09:29:42;101876.88;;;6.10;90.18
51359;BME280;37448;51.588;7.248;2023-04-08T09:31:42;101881.06;;;6.01;88.31
51359;BME280;37448;51.588;7.248;2023-04-08T09:33:43;101891.25;;;5.92;86.17
51359;BME280;37448;51.588;7.248;2023-04-08T09:35:43;101892.31;;;6.02;89.04
51359;BME280;37448;51.588;7.248;2023-04-08T09:37:46;101893.91;;;5.95;87.74
51359;BME280;37448;51.588;7.248;2023-04-08T09:39:47;101888.06;;;6.06;91.40
51359;BME280;37448;51.588;7.248;2023-04-08T09:41:49;101892.38;;;6.05;90.57
51359;BME280;37448;51.588;7.248;2023-04-08T09:43:54;101894.75;;;5.94;87.25
51359;BME280;37448;51.588;7.248;2023-04-08T09:45:56;101892.91;;;5.88;85.46
51359;BME280;37448;51.588;7.248;2023-04-08T09:48:13;101886.13;;;5.97;88.80
51359;BME280;37448;51.588;7.248;2023-04-08T09:50:19;101892.09;;;5.91;87.89
51359;BME280;37448;51.588;7.248;2023-04-08T09:52:31;101891.13;;;5.86;87.42
51359;BME280;37448;51.588;7.248;2023-04-08T09:54:54;101895.59;;;5.93;89.08
51359;BME280;37448;51.588;7.248;2023-04-08T09:57:04;101900.63;;;5.85;85.98
51359;BME280;37448;51.588;7.248;2023-04-08T09:59:13;101902.59;;;5.97;87.18
51359;BME280;37448;51.588;7.248;2023-04-08T10:01:23;101889.66;;;6.00;85.73
51359;BME280;37448;51.588;7.248;2023-04-08T10:03:32;101896.91;;;6.17;86.48
51359;BME280;37448;51.588;7.248;2023-04-08T10:05:36;101897.22;;;6.39;88.35
51359;BME280;37448;51.588;7.248;2023-04-08T10:07:38;101897.47;;;6.54;88.53
51359;BME280;37448;51.588;7.248;2023-04-08T10:09:38;101903.53;;;6.53;84.47
51359;BME280;37448;51.588;7.248;2023-04-08T10:11:42;101889.97;;;6.73;88.64
51359;BME280;37448;51.588;7.248;2023-04-08T10:13:43;101887.34;;;6.70;85.42
51359;BME280;37448;51.588;7.248;2023-04-08T10:15:43;101888.94;;;6.61;83.30
51359;BME280;37448;51.588;7.248;2023-04-08T10:17:46;101895.03;;;6.64;82.84
51359;BME280;37448;51.588;7.248;2023-04-08T10:19:47;101896.03;;;6.72;83.77
51359;BME280;37448;51.588;7.248;2023-04-08T10:21:47;101890.78;;;6.69;83.98
51359;BME280;37448;51.588;7.248;2023-04-08T10:23:56;101896.28;;;6.91;87.52
51359;BME280;37448;51.588;7.248;2023-04-08T10:25:59;101892.81;;;6.88;85.73
51359;BME280;37448;51.588;7.248;2023-04-08T10:28:00;101899.59;;;6.80;81.91
51359;BME280;37448;51.588;7.248;2023-04-08T10:30:02;101901.34;;;6.81;83.75
51359;BME280;37448;51.588;7.248;2023-04-08T10:32:03;101906.41;;;6.72;82.13
51359;BME280;37448;51.588;7.248;2023-04-08T10:34:20;101902.34;;;6.91;85.66
51359;BME280;37448;51.588;7.248;2023-04-08T10:36:21;101900.47;;;6.81;82.31
51359;BME280;37448;51.588;7.248;2023-04-08T10:38:22;101894.34;;;6.75;81.10
51359;BME280;37448;51.588;7.248;2023-04-08T10:40:23;101900.47;;;6.82;81.65
51359;BME280;37448;51.588;7.248;2023-04-08T10:42:26;101900.97;;;7.16;84.87
51359;BME280;37448;51.588;7.248;2023-04-08T10:44:27;101887.56;;;7.58;87.12
51359;BME280;37448;51.588;7.248;2023-04-08T10:46:27;101890.56;;;7.98;84.46
51359;BME280;37448;51.588;7.248;2023-04-08T10:48:28;101892.72;;;8.49;88.18
51359;BME280;37448;51.588;7.248;2023-04-08T10:50:28;101885.03;;;8.58;76.19
51359;BME280;37448;51.588;7.248;2023-04-08T10:52:29;101886.91;;;8.86;78.29